Time;durP1;ratioP1;P1;durP2;ratioP2;P2;SDS_P1;SDS_P2;PMS_P1;PMS_P2;Temp;Humidity;BMP_temperature;BMP_pressure;BME280_temperature;BME280_humidity;BME280_pressure;Samples;Min_cycle;Max_cycle;Signal;HPM_P1;HPM_P2
2023/08/04 00:00:38;;;;;;;1.05;0.60;;;;;;;16.73;100.00;97653.34;2613533;28;20045;-85
2023/08/04 00:02:13;;;;;;;1.70;0.75;;;;;;;16.95;100.00;97659.88;2613818;28;20154;-85
2023/08/04 00:03:29;;;;;;;0.70;0.70;;;;;;;16.94;100.00;97663.47;2613721;28;20139;-85
2023/08/04 00:04:46;;;;;;;0.70;0.60;;;;;;;16.77;100.00;97662.78;2613407;28;20052;-85
2023/08/04 00:06:10;;;;;;;2.50;0.60;;;;;;;16.97;100.00;97657.97;2613788;28;20056;-85
2023/08/04 00:07:25;;;;;;;0.50;0.50;;;;;;;17.07;100.00;97663.50;2613505;28;20116;-85
2023/08/04 00:08:41;;;;;;;1.27;0.60;;;;;;;17.01;100.00;97664.75;2613713;28;20044;-85
2023/08/04 00:09:56;;;;;;;3.22;0.70;;;;;;;16.92;100.00;97670.66;2613489;28;20048;-85
2023/08/04 00:11:12;;;;;;;1.55;0.50;;;;;;;16.91;100.00;97658.38;2613610;28;20488;-85
2023/08/04 00:12:28;;;;;;;2.00;0.68;;;;;;;16.99;100.00;97658.72;2613709;28;20124;-85
2023/08/04 00:13:43;;;;;;;1.05;0.60;;;;;;;16.95;100.00;97667.78;2613633;28;20048;-85
2023/08/04 00:14:59;;;;;;;0.70;0.70;;;;;;;16.83;100.00;97664.16;2613578;28;20124;-85
2023/08/04 00:16:14;;;;;;;0.70;0.70;;;;;;;16.79;100.00;97666.16;2613400;28;20052;-85
2023/08/04 00:17:30;;;;;;;1.35;0.82;;;;;;;16.85;100.00;97661.41;2613724;28;20044;-85
2023/08/04 00:18:45;;;;;;;0.90;0.70;;;;;;;16.91;100.00;97655.75;2613500;28;20397;-85
2023/08/04 00:20:01;;;;;;;1.45;0.80;;;;;;;16.95;100.00;97652.75;2613355;28;20056;-85
2023/08/04 00:21:16;;;;;;;1.35;0.70;;;;;;;16.82;100.00;97640.47;2613611;28;20491;-85
2023/08/04 00:22:32;;;;;;;0.63;0.60;;;;;;;16.80;100.00;97636.16;2613581;28;20128;-85
2023/08/04 00:23:48;;;;;;;0.82;0.82;;;;;;;16.82;100.00;97635.19;2613350;28;20045;-85
2023/08/04 00:25:04;;;;;;;0.93;0.73;;;;;;;16.88;100.00;97640.06;2613586;28;20056;-85
2023/08/04 00:26:19;;;;;;;1.17;0.70;;;;;;;16.78;100.00;97630.13;2602566;28;20053;-85
2023/08/04 00:27:35;;;;;;;1.05;0.85;;;;;;;16.83;100.00;97639.53;2606699;28;20108;-85
2023/08/04 00:28:51;;;;;;;0.63;0.60;;;;;;;16.99;100.00;97637.56;2613263;28;20071;-86
2023/08/04 00:30:09;;;;;;;2.22;0.57;;;;;;;16.98;100.00;97637.66;2613623;28;20485;-85
2023/08/04 00:31:24;;;;;;;2.00;1.02;;;;;;;17.07;99.71;97645.00;2613491;28;20513;-85
2023/08/04 00:32:40;;;;;;;1.58;0.70;;;;;;;17.07;98.07;97640.56;2613413;28;20065;-85
2023/08/04 00:33:55;;;;;;;0.57;0.57;;;;;;;17.11;97.52;97651.75;2613324;28;20041;-85
2023/08/04 00:35:11;;;;;;;0.50;0.50;;;;;;;17.05;100.00;97655.69;2613488;28;20056;-85
2023/08/04 00:36:26;;;;;;;2.15;0.70;;;;;;;17.05;100.00;97658.34;2613342;28;20048;-85
2023/08/04 00:37:42;;;;;;;5.43;0.90;;;;;;;17.15;99.47;97658.56;2613350;28;20064;-85
2023/08/04 00:38:57;;;;;;;0.80;0.50;;;;;;;17.18;98.75;97657.47;2613363;28;20495;-85
2023/08/04 00:40:13;;;;;;;1.40;0.57;;;;;;;17.18;97.66;97658.34;2613255;28;20045;-85
2023/08/04 00:41:28;;;;;;;1.58;0.65;;;;;;;17.27;96.51;97659.50;2613345;28;20099;-85
2023/08/04 00:42:44;;;;;;;1.92;0.60;;;;;;;17.31;96.38;97657.50;2613334;28;20045;-85
2023/08/04 00:44:00;;;;;;;1.67;0.65;;;;;;;17.28;95.43;97650.63;2613138;28;20401;-85
2023/08/04 00:45:15;;;;;;;1.05;0.60;;;;;;;17.23;94.07;97655.38;2602209;28;20052;-85
2023/08/04 00:46:31;;;;;;;1.45;0.60;;;;;;;17.22;94.17;97661.63;2606613;28;20049;-85
2023/08/04 00:47:47;;;;;;;0.60;0.50;;;;;;;17.29;92.49;97660.25;2613285;28;20528;-85
2023/08/04 00:49:04;;;;;;;2.22;0.55;;;;;;;17.44;89.96;97663.66;2613004;28;20056;-85
2023/08/04 00:50:20;;;;;;;0.60;0.55;;;;;;;17.36;90.82;97664.19;2613164;28;20116;-85
2023/08/04 00:51:36;;;;;;;0.60;0.60;;;;;;;17.27;91.78;97659.50;2613179;28;20085;-85
2023/08/04 00:52:53;;;;;;;1.10;0.60;;;;;;;17.35;89.94;97662.50;2613134;28;20045;-85
2023/08/04 00:54:09;;;;;;;0.68;0.60;;;;;;;17.43;89.81;97664.63;2613188;28;20908;-85
2023/08/04 00:55:26;;;;;;;2.67;0.70;;;;;;;17.29;90.52;97668.19;2602232;28;20065;-85
2023/08/04 00:56:42;;;;;;;1.15;0.60;;;;;;;17.40;87.69;97680.69;2606701;28;20045;-85
2023/08/04 00:57:57;;;;;;;1.05;0.70;;;;;;;17.40;88.80;97679.84;2613254;28;20060;-85
2023/08/04 00:59:13;;;;;;;0.43;0.43;;;;;;;17.45;87.92;97685.66;2613133;28;20052;-85
2023/08/04 01:00:28;;;;;;;1.10;0.60;;;;;;;17.51;87.13;97691.38;2613203;28;20094;-85
2023/08/04 01:01:44;;;;;;;0.32;0.32;;;;;;;17.48;84.05;97690.75;2613054;28;20053;-85
2023/08/04 01:02:59;;;;;;;0.52;0.32;;;;;;;17.67;81.55;97694.78;2613176;28;20049;-85
2023/08/04 01:04:16;;;;;;;1.17;0.35;;;;;;;17.72;81.42;97690.00;2613115;28;20045;-85
2023/08/04 01:05:40;;;;;;;1.95;0.90;;;;;;;17.64;82.29;97690.53;2613154;28;20090;-85
2023/08/04 01:07:12;;;;;;;1.65;0.50;;;;;;;17.81;80.29;97686.72;2612929;28;20439;-86
2023/08/04 01:08:33;;;;;;;0.85;0.60;;;;;;;17.84;80.07;97683.84;2613029;28;20049;-85
2023/08/04 01:10:13;;;;;;;0.25;0.25;;;;;;;17.87;78.50;97680.97;2612996;28;20044;-85
2023/08/04 01:11:34;;;;;;;0.40;0.40;;;;;;;17.95;77.73;97682.25;2613084;28;20052;-85
2023/08/04 01:13:05;;;;;;;0.57;0.30;;;;;;;18.08;77.32;97685.75;2612453;28;20072;-85
2023/08/04 01:14:22;;;;;;;0.40;0.32;;;;;;;18.10;76.21;97678.56;2612987;28;20124;-85
2023/08/04 01:15:39;;;;;;;0.75;0.40;;;;;;;18.18;75.83;97675.34;2613083;28;20071;-85
2023/08/04 01:16:54;;;;;;;0.65;0.60;;;;;;;18.11;76.36;97672.28;2613001;28;20045;-85
2023/08/04 01:18:10;;;;;;;0.40;0.40;;;;;;;18.32;75.45;97679.69;2602046;28;20049;-85
2023/08/04 01:19:25;;;;;;;0.95;0.60;;;;;;;18.21;75.47;97678.63;2606258;28;20048;-85
2023/08/04 01:20:41;;;;;;;1.40;0.50;;;;;;;18.31;75.52;97685.94;2612857;28;20559;-85
2023/08/04 01:21:57;;;;;;;1.30;0.60;;;;;;;18.23;75.97;97677.69;2613045;28;20049;-85
2023/08/04 01:23:12;;;;;;;0.32;0.32;;;;;;;18.24;74.84;97679.38;2613089;28;20064;-85
2023/08/04 01:24:28;;;;;;;1.23;0.30;;;;;;;18.16;75.75;97693.16;2612836;28;20045;-85
2023/08/04 01:25:44;;;;;;;1.15;0.50;;;;;;;18.27;74.95;97687.09;2612845;28;20067;-85
2023/08/04 01:26:59;;;;;;;0.40;0.40;;;;;;;18.24;75.01;97687.31;2612855;28;20493;-85
2023/08/04 01:28:16;;;;;;;1.15;0.60;;;;;;;18.25;75.30;97695.16;2612746;28;20120;-85
2023/08/04 01:29:32;;;;;;;1.20;0.50;;;;;;;18.29;74.14;97688.69;2612731;28;20044;-85
2023/08/04 01:30:52;;;;;;;0.80;0.35;;;;;;;18.45;74.25;97691.06;2612874;28;20048;-85
2023/08/04 01:32:08;;;;;;;0.45;0.45;;;;;;;18.30;74.14;97692.16;2612781;28;20073;-85
2023/08/04 01:33:24;;;;;;;0.77;0.43;;;;;;;18.33;73.78;97694.63;2612879;28;20040;-85
2023/08/04 01:34:41;;;;;;;0.68;0.47;;;;;;;18.28;75.05;97689.63;2612811;28;20061;-85
2023/08/04 01:35:57;;;;;;;0.60;0.40;;;;;;;18.23;75.46;97690.91;2612902;28;20546;-85
2023/08/04 01:37:13;;;;;;;0.93;0.50;;;;;;;18.43;74.79;97690.31;2612985;28;20072;-85
2023/08/04 01:38:28;;;;;;;2.05;0.70;;;;;;;18.64;73.65;97684.41;2601792;28;20088;-85
2023/08/04 01:39:44;;;;;;;0.65;0.60;;;;;;;18.41;75.35;97678.97;2605982;28;20455;-86
2023/08/04 01:40:59;;;;;;;1.38;0.60;;;;;;;18.37;75.51;97677.53;2612860;28;20048;-85
2023/08/04 01:42:15;;;;;;;0.43;0.40;;;;;;;18.59;74.29;97674.16;2601770;28;20052;-85
2023/08/04 01:43:30;;;;;;;1.15;0.63;;;;;;;18.50;74.71;97669.50;2606009;28;20049;-85
2023/08/04 01:44:46;;;;;;;1.25;0.60;;;;;;;18.34;74.90;97669.81;2601597;28;20049;-85
2023/08/04 01:46:01;;;;;;;1.75;0.80;;;;;;;18.26;75.72;97673.00;2606218;28;20071;-85
2023/08/04 01:47:17;;;;;;;0.93;0.40;;;;;;;18.16;75.91;97667.53;2612703;28;20451;-85
2023/08/04 01:48:32;;;;;;;0.57;0.38;;;;;;;18.23;75.47;97673.22;2612691;28;20060;-85
2023/08/04 01:49:48;;;;;;;1.27;0.50;;;;;;;18.08;77.38;97680.47;2612637;28;20049;-85
2023/08/04 01:51:04;;;;;;;0.60;0.60;;;;;;;18.35;76.48;97679.44;2612706;28;20477;-85
2023/08/04 01:52:19;;;;;;;1.48;0.80;;;;;;;18.19;77.17;97685.84;2612581;28;20045;-85
2023/08/04 01:53:35;;;;;;;2.83;0.52;;;;;;;18.44;76.67;97684.09;2612541;28;20072;-85
2023/08/04 01:54:51;;;;;;;0.90;0.57;;;;;;;18.41;75.91;97675.50;2612510;28;20045;-85
2023/08/04 01:56:06;;;;;;;0.93;0.65;;;;;;;18.27;75.55;97676.50;2612567;28;20060;-85
2023/08/04 01:57:21;;;;;;;1.70;0.60;;;;;;;18.27;76.59;97684.44;2612662;28;20052;-85
2023/08/04 01:58:37;;;;;;;0.95;0.50;;;;;;;18.26;76.71;97680.97;2612618;28;20049;-85
2023/08/04 01:59:53;;;;;;;0.77;0.50;;;;;;;18.13;77.16;97688.91;2601372;28;20049;-85
2023/08/04 02:01:08;;;;;;;0.50;0.50;;;;;;;18.23;76.85;97691.78;2605648;28;20057;-84
2023/08/04 02:02:24;;;;;;;1.85;0.60;;;;;;;18.28;77.01;97697.59;2612732;28;20044;-85
2023/08/04 02:03:39;;;;;;;1.25;0.60;;;;;;;18.28;76.27;97688.78;2601411;28;20041;-85
2023/08/04 02:04:55;;;;;;;0.55;0.50;;;;;;;18.32;76.83;97693.75;2605806;28;20182;-85
2023/08/04 02:06:10;;;;;;;2.85;0.90;;;;;;;18.25;76.83;97696.94;2612417;28;20045;-85
2023/08/04 02:07:26;;;;;;;1.70;0.70;;;;;;;18.37;76.41;97697.88;2612505;28;20048;-85
2023/08/04 02:08:41;;;;;;;0.50;0.43;;;;;;;18.03;78.54;97706.44;2612438;28;20071;-85
2023/08/04 02:09:57;;;;;;;0.65;0.60;;;;;;;18.15;78.09;97697.59;2612338;28;20048;-84
2023/08/04 02:11:12;;;;;;;1.00;0.60;;;;;;;18.11;79.03;97695.31;2612476;28;20561;-85
2023/08/04 02:12:28;;;;;;;0.52;0.50;;;;;;;18.01;78.77;97695.91;2612610;28;20473;-85
2023/08/04 02:13:43;;;;;;;1.40;0.50;;;;;;;18.00;79.17;97699.53;2612300;28;20094;-85
2023/08/04 02:15:00;;;;;;;1.77;0.60;;;;;;;17.99;78.59;97718.16;2612366;28;20607;-85
2023/08/04 02:16:15;;;;;;;1.45;0.65;;;;;;;18.05;78.53;97713.31;2612600;28;20500;-85
2023/08/04 02:17:33;;;;;;;2.00;0.70;;;;;;;18.06;79.03;97700.91;2612429;28;20053;-85
2023/08/04 02:18:49;;;;;;;0.90;0.50;;;;;;;17.94;78.99;97705.22;2612499;28;20049;-85
2023/08/04 02:20:05;;;;;;;1.27;0.60;;;;;;;18.11;78.50;97701.44;2612326;28;20401;-85
2023/08/04 02:21:21;;;;;;;2.47;0.70;;;;;;;17.87;78.88;97702.16;2612541;28;20044;-85
2023/08/04 02:22:36;;;;;;;1.17;0.50;;;;;;;18.03;79.37;97711.75;2612482;28;20049;-85
2023/08/04 02:23:52;;;;;;;0.90;0.60;;;;;;;18.13;79.16;97707.47;2612420;28;20041;-85
2023/08/04 02:25:08;;;;;;;1.65;0.68;;;;;;;18.01;79.25;97705.66;2611467;28;20041;-85
2023/08/04 02:26:23;;;;;;;1.85;0.88;;;;;;;18.02;79.25;97702.94;2612356;28;20040;-85
2023/08/04 02:27:39;;;;;;;2.63;0.50;;;;;;;18.03;79.77;97709.09;2612393;28;20049;-85
2023/08/04 02:28:55;;;;;;;1.83;0.88;;;;;;;18.18;79.53;97699.19;2612328;28;20049;-85
2023/08/04 02:30:11;;;;;;;0.90;0.70;;;;;;;18.04;79.84;97713.44;2612221;28;20427;-85
2023/08/04 02:31:28;;;;;;;1.60;0.70;;;;;;;18.09;80.40;97699.84;2612477;28;20052;-85
2023/08/04 02:32:43;;;;;;;0.90;0.60;;;;;;;18.06;81.30;97696.44;2612463;28;20458;-85
2023/08/04 02:34:00;;;;;;;2.17;0.60;;;;;;;17.95;82.26;97696.34;2612322;28;20130;-85
2023/08/04 02:35:15;;;;;;;1.85;0.60;;;;;;;17.89;82.97;97697.63;2612242;28;20049;-85
2023/08/04 02:36:31;;;;;;;0.60;0.60;;;;;;;17.71;84.55;97693.59;2612490;28;20051;-85
2023/08/04 02:37:46;;;;;;;0.90;0.50;;;;;;;17.46;89.18;97692.63;2612230;28;20045;-85
2023/08/04 02:39:02;;;;;;;0.80;0.80;;;;;;;17.32;93.06;97697.09;2612433;28;20041;-85
2023/08/04 02:40:18;;;;;;;1.40;0.63;;;;;;;17.05;100.00;97692.72;2612212;28;20044;-85
2023/08/04 02:41:34;;;;;;;2.90;0.70;;;;;;;17.01;100.00;97693.84;2612317;28;20049;-85
2023/08/04 02:42:49;;;;;;;0.50;0.50;;;;;;;17.11;99.60;97695.88;2612317;28;20045;-85
2023/08/04 02:44:06;;;;;;;2.42;0.70;;;;;;;16.92;100.00;97695.28;2612443;28;20041;-85
2023/08/04 02:45:22;;;;;;;0.93;0.80;;;;;;;16.78;100.00;97692.69;2612147;28;20508;-85
2023/08/04 02:46:37;;;;;;;1.75;0.73;;;;;;;17.02;100.00;97692.06;2612198;28;20044;-85
2023/08/04 02:47:53;;;;;;;2.15;0.80;;;;;;;17.14;100.00;97693.91;2612342;28;20056;-85
2023/08/04 02:49:08;;;;;;;0.70;0.60;;;;;;;17.28;100.00;97708.00;2612328;28;20048;-85
2023/08/04 02:50:24;;;;;;;1.08;0.80;;;;;;;17.38;95.99;97702.91;2612099;28;20048;-85
2023/08/04 02:51:39;;;;;;;1.20;0.60;;;;;;;17.42;97.28;97714.97;2612229;28;20044;-85
2023/08/04 02:52:55;;;;;;;2.03;0.68;;;;;;;17.22;97.59;97711.91;2601383;28;20402;-85
2023/08/04 02:54:10;;;;;;;1.83;0.70;;;;;;;17.20;98.55;97704.03;2605433;28;20045;-85
2023/08/04 02:55:29;;;;;;;1.75;0.80;;;;;;;17.08;98.34;97712.78;2612144;28;20052;-85
2023/08/04 02:56:45;;;;;;;0.65;0.50;;;;;;;17.23;97.50;97713.59;2612322;28;20044;-85
2023/08/04 02:58:00;;;;;;;1.48;0.70;;;;;;;17.26;94.31;97710.72;2612194;28;20417;-85
2023/08/04 02:59:16;;;;;;;1.50;0.60;;;;;;;17.46;94.33;97713.81;2612306;28;20052;-85
2023/08/04 03:00:31;;;;;;;2.55;0.80;;;;;;;17.41;95.41;97711.50;2612253;28;20095;-85
2023/08/04 03:01:47;;;;;;;1.77;0.70;;;;;;;17.48;93.47;97704.81;2611949;28;20049;-85
2023/08/04 03:03:02;;;;;;;0.50;0.50;;;;;;;17.40;93.87;97706.31;2612236;28;20579;-85
2023/08/04 03:04:18;;;;;;;0.60;0.60;;;;;;;17.20;97.16;97709.34;2612239;28;20048;-85
2023/08/04 03:05:36;;;;;;;1.38;0.70;;;;;;;17.38;94.45;97694.97;2612176;28;20045;-85
2023/08/04 03:06:52;;;;;;;1.40;0.60;;;;;;;17.25;95.81;97700.22;2612187;28;20496;-85
2023/08/04 03:08:07;;;;;;;1.83;0.70;;;;;;;17.04;100.00;97701.59;2612028;28;20068;-85
2023/08/04 03:09:23;;;;;;;2.97;0.80;;;;;;;16.97;100.00;97694.97;2612170;28;20762;-85
2023/08/04 03:10:41;;;;;;;2.70;0.70;;;;;;;16.85;100.00;97695.78;2612037;28;20075;-85
2023/08/04 03:11:57;;;;;;;1.90;0.60;;;;;;;16.98;100.00;97701.97;2612231;28;20049;-85
2023/08/04 03:13:12;;;;;;;0.88;0.60;;;;;;;16.97;100.00;97700.28;2612263;28;20305;-85
2023/08/04 03:14:28;;;;;;;2.72;0.90;;;;;;;16.98;100.00;97707.25;2612231;28;20045;-85
2023/08/04 03:15:44;;;;;;;1.48;0.77;;;;;;;16.87;100.00;97709.75;2612133;28;20048;-85
2023/08/04 03:16:59;;;;;;;1.67;0.70;;;;;;;17.11;100.00;97714.41;2612125;28;20041;-85
2023/08/04 03:18:15;;;;;;;1.48;0.63;;;;;;;16.90;100.00;97709.53;2612131;28;20040;-85
2023/08/04 03:19:31;;;;;;;2.40;0.70;;;;;;;16.82;100.00;97710.03;2612163;28;20067;-85
2023/08/04 03:20:46;;;;;;;0.93;0.60;;;;;;;16.67;100.00;97707.44;2612114;28;20230;-85
2023/08/04 03:22:02;;;;;;;0.90;0.60;;;;;;;16.73;100.00;97708.03;2612043;28;20045;-85
2023/08/04 03:23:18;;;;;;;3.83;0.80;;;;;;;16.95;100.00;97707.47;2611927;28;20477;-85
2023/08/04 03:24:33;;;;;;;1.35;0.70;;;;;;;16.66;100.00;97707.56;2612109;28;20489;-85
2023/08/04 03:25:49;;;;;;;1.38;0.60;;;;;;;16.64;100.00;97693.63;2612033;28;20052;-85
2023/08/04 03:27:05;;;;;;;1.05;0.60;;;;;;;16.67;100.00;97698.69;2611985;28;20079;-85
2023/08/04 03:28:20;;;;;;;3.88;0.68;;;;;;;16.69;100.00;97693.28;2611990;28;20115;-84
2023/08/04 03:29:36;;;;;;;0.68;0.52;;;;;;;16.85;100.00;97703.72;2612121;28;20049;-85
2023/08/04 03:30:51;;;;;;;0.82;0.65;;;;;;;16.97;100.00;97700.28;2611987;28;20065;-85
2023/08/04 03:32:07;;;;;;;1.42;0.80;;;;;;;16.78;100.00;97701.50;2612180;28;20041;-85
2023/08/04 03:33:22;;;;;;;3.50;0.80;;;;;;;16.62;100.00;97693.69;2612146;28;20045;-85
2023/08/04 03:34:38;;;;;;;2.20;0.80;;;;;;;16.54;100.00;97703.91;2611934;28;20045;-84
2023/08/04 03:35:54;;;;;;;1.05;0.63;;;;;;;16.71;100.00;97705.47;2612149;28;20055;-84
2023/08/04 03:37:09;;;;;;;0.77;0.70;;;;;;;17.01;100.00;97704.44;2613957;28;20114;-85
2023/08/04 03:38:25;;;;;;;0.60;0.60;;;;;;;17.07;100.00;97708.47;2613950;28;20107;-85
2023/08/04 03:39:40;;;;;;;1.80;0.90;;;;;;;17.06;100.00;97720.84;2613914;28;20041;-85
2023/08/04 03:40:56;;;;;;;1.45;0.88;;;;;;;16.58;100.00;97713.34;2613958;28;20051;-85
2023/08/04 03:42:11;;;;;;;1.90;0.70;;;;;;;16.45;100.00;97715.91;2613984;28;20503;-85
2023/08/04 03:43:27;;;;;;;2.08;0.80;;;;;;;16.47;100.00;97714.03;2613836;28;20045;-85
2023/08/04 03:44:42;;;;;;;0.50;0.50;;;;;;;16.51;100.00;97714.69;2613830;28;20064;-85
2023/08/04 03:45:58;;;;;;;3.13;0.70;;;;;;;16.84;100.00;97715.25;2613897;28;20041;-85
2023/08/04 03:47:13;;;;;;;1.10;0.73;;;;;;;16.85;100.00;97722.22;2613761;28;20041;-85
2023/08/04 03:48:29;;;;;;;1.02;0.70;;;;;;;16.66;100.00;97723.44;2613991;28;20049;-85
2023/08/04 03:49:44;;;;;;;1.70;0.70;;;;;;;16.93;100.00;97725.22;2613755;28;20049;-85
2023/08/04 03:51:00;;;;;;;0.60;0.60;;;;;;;16.94;100.00;97729.56;2613710;28;20071;-85
2023/08/04 03:52:15;;;;;;;2.25;0.70;;;;;;;16.91;100.00;97725.31;2613865;28;20041;-86
2023/08/04 03:53:31;;;;;;;1.05;0.80;;;;;;;16.82;100.00;97725.91;2613886;28;20041;-85
2023/08/04 03:54:47;;;;;;;2.05;1.00;;;;;;;17.03;100.00;97728.97;2613722;28;20044;-85
2023/08/04 03:56:02;;;;;;;1.55;0.80;;;;;;;16.98;100.00;97732.84;2613784;28;20049;-85
2023/08/04 03:57:18;;;;;;;1.42;1.02;;;;;;;16.89;100.00;97736.94;2613849;28;20041;-85
2023/08/04 03:58:33;;;;;;;5.35;1.25;;;;;;;16.90;100.00;97734.19;2613891;28;20104;-85
2023/08/04 03:59:51;;;;;;;4.55;0.80;;;;;;;16.79;100.00;97734.03;2613583;28;20049;-85
2023/08/04 04:01:06;;;;;;;1.40;0.70;;;;;;;16.89;100.00;97731.63;2613576;28;20136;-85
2023/08/04 04:02:22;;;;;;;4.88;0.90;;;;;;;17.00;100.00;97731.81;2613899;28;20056;-85
2023/08/04 04:03:37;;;;;;;2.17;1.00;;;;;;;16.93;100.00;97730.50;2613688;28;20098;-85
2023/08/04 04:04:53;;;;;;;4.90;1.00;;;;;;;16.72;100.00;97733.59;2613481;28;20068;-85
2023/08/04 04:06:08;;;;;;;2.28;0.70;;;;;;;16.68;100.00;97729.47;2613813;28;20049;-85
2023/08/04 04:07:24;;;;;;;5.63;0.90;;;;;;;16.70;100.00;97732.84;2613733;28;20056;-84
2023/08/04 04:08:39;;;;;;;3.47;0.70;;;;;;;16.63;100.00;97728.91;2613613;28;20052;-84
2023/08/04 04:09:55;;;;;;;1.05;0.90;;;;;;;16.72;100.00;97722.19;2613552;28;20049;-85
2023/08/04 04:11:10;;;;;;;2.50;1.00;;;;;;;16.90;100.00;97718.31;2613739;28;20041;-85
2023/08/04 04:12:26;;;;;;;3.22;0.90;;;;;;;17.12;100.00;97716.09;2613646;28;20079;-85
2023/08/04 04:13:41;;;;;;;3.40;0.90;;;;;;;17.08;100.00;97726.03;2613629;28;20053;-84
2023/08/04 04:14:57;;;;;;;1.38;0.80;;;;;;;17.17;100.00;97725.41;2613672;28;20178;-85
2023/08/04 04:16:13;;;;;;;1.55;0.70;;;;;;;17.16;100.00;97721.09;2613587;28;20049;-85
2023/08/04 04:17:28;;;;;;;0.70;0.70;;;;;;;17.25;100.00;97724.03;2613493;28;20049;-85
2023/08/04 04:18:43;;;;;;;1.05;0.70;;;;;;;17.15;100.00;97726.47;2613632;28;20501;-85
2023/08/04 04:19:59;;;;;;;0.85;0.70;;;;;;;17.12;100.00;97716.97;2613499;28;20041;-85
2023/08/04 04:21:15;;;;;;;1.25;0.70;;;;;;;16.99;100.00;97719.56;2613504;28;20056;-85
2023/08/04 04:22:30;;;;;;;1.60;0.80;;;;;;;17.06;100.00;97714.69;2613501;28;20051;-85
2023/08/04 04:23:46;;;;;;;1.23;0.73;;;;;;;17.19;100.00;97720.03;2613637;28;20481;-85
2023/08/04 04:25:02;;;;;;;1.45;0.70;;;;;;;17.10;100.00;97723.28;2613392;28;20049;-85
2023/08/04 04:26:18;;;;;;;1.73;0.70;;;;;;;17.21;100.00;97724.25;2613517;28;20527;-85
2023/08/04 04:27:33;;;;;;;0.70;0.70;;;;;;;17.17;100.00;97729.84;2613404;28;20049;-85
2023/08/04 04:28:49;;;;;;;2.83;1.00;;;;;;;17.16;100.00;97736.09;2613395;28;20068;-84
2023/08/04 04:30:05;;;;;;;2.40;0.65;;;;;;;17.06;100.00;97739.38;2613212;28;20508;-85
2023/08/04 04:31:20;;;;;;;0.63;0.63;;;;;;;17.12;100.00;97737.25;2613506;28;20041;-85
2023/08/04 04:32:36;;;;;;;1.02;0.70;;;;;;;17.01;100.00;97736.16;2613530;28;20045;-84
2023/08/04 04:33:51;;;;;;;0.60;0.60;;;;;;;17.04;100.00;97743.06;2613426;28;20041;-85
2023/08/04 04:35:07;;;;;;;1.25;0.80;;;;;;;17.11;100.00;97741.69;2613330;28;20045;-85
2023/08/04 04:36:23;;;;;;;1.90;0.90;;;;;;;17.25;100.00;97743.44;2613523;28;20056;-84
2023/08/04 04:37:38;;;;;;;2.78;0.85;;;;;;;17.30;100.00;97745.78;2613430;28;20095;-85
2023/08/04 04:38:54;;;;;;;1.25;0.70;;;;;;;17.30;100.00;97737.84;2613412;28;20040;-85
2023/08/04 04:40:09;;;;;;;2.22;0.90;;;;;;;17.27;100.00;97743.34;2613290;28;20124;-84
2023/08/04 04:41:27;;;;;;;1.63;0.80;;;;;;;17.34;100.00;97749.91;2613360;28;20048;-84
2023/08/04 04:42:42;;;;;;;2.85;1.05;;;;;;;17.42;100.00;97747.59;2613399;28;20488;-84
2023/08/04 04:43:58;;;;;;;1.33;0.90;;;;;;;17.44;100.00;97744.81;2613313;28;20045;-84
2023/08/04 04:45:13;;;;;;;2.75;1.00;;;;;;;17.48;100.00;97754.28;2613145;28;20049;-84
2023/08/04 04:46:29;;;;;;;2.15;0.70;;;;;;;17.50;100.00;97752.38;2613320;28;20665;-84
2023/08/04 04:47:45;;;;;;;2.67;0.80;;;;;;;17.58;100.00;97765.09;2612258;28;20056;-84
2023/08/04 04:49:01;;;;;;;2.80;0.80;;;;;;;17.67;100.00;97760.97;2613203;28;20497;-84
2023/08/04 04:50:16;;;;;;;2.15;0.80;;;;;;;17.72;100.00;97767.63;2613112;28;20091;-84
2023/08/04 04:51:32;;;;;;;1.15;0.80;;;;;;;17.65;100.00;97769.84;2613310;28;20409;-84
2023/08/04 04:52:47;;;;;;;1.95;0.80;;;;;;;17.63;100.00;97762.97;2613339;28;20052;-84
2023/08/04 04:54:03;;;;;;;1.52;0.90;;;;;;;17.75;100.00;97764.78;2613182;28;20106;-85
2023/08/04 04:55:18;;;;;;;1.20;0.80;;;;;;;17.81;100.00;97763.50;2613231;28;20492;-84
2023/08/04 04:56:34;;;;;;;1.00;0.80;;;;;;;17.80;100.00;97761.81;2613330;28;20041;-85
2023/08/04 04:57:49;;;;;;;0.65;0.63;;;;;;;17.82;100.00;97765.19;2613258;28;20053;-85
2023/08/04 04:59:05;;;;;;;1.20;0.70;;;;;;;17.87;100.00;97756.94;2613148;28;20095;-85
2023/08/04 05:00:21;;;;;;;1.02;0.90;;;;;;;17.85;98.12;97772.91;2613270;28;20045;-85
2023/08/04 05:01:36;;;;;;;2.30;0.90;;;;;;;17.98;99.64;97772.94;2612904;28;20045;-85
2023/08/04 05:02:52;;;;;;;1.55;0.90;;;;;;;17.82;96.40;97774.97;2612980;28;20049;-85
2023/08/04 05:04:08;;;;;;;3.28;0.73;;;;;;;17.92;99.85;97771.56;2613099;28;20044;-85
2023/08/04 05:05:24;;;;;;;1.63;0.77;;;;;;;17.98;97.08;97785.31;2612990;28;20053;-85
2023/08/04 05:06:39;;;;;;;1.08;0.80;;;;;;;18.12;95.54;97779.94;2601900;28;20516;-85
2023/08/04 05:07:55;;;;;;;2.22;0.90;;;;;;;18.15;97.99;97790.31;2606222;28;20532;-85
2023/08/04 05:09:11;;;;;;;2.40;0.80;;;;;;;18.21;97.04;97792.56;2613264;28;20501;-85
2023/08/04 05:10:26;;;;;;;1.67;0.85;;;;;;;18.07;99.86;97784.72;2612985;28;20048;-85
2023/08/04 05:11:42;;;;;;;1.15;0.85;;;;;;;17.68;100.00;97779.38;2612977;28;20045;-85
2023/08/04 05:12:57;;;;;;;1.10;0.75;;;;;;;18.06;93.52;97785.69;2613008;28;20068;-85
2023/08/04 05:14:13;;;;;;;0.80;0.70;;;;;;;18.27;94.58;97775.38;2613218;28;20412;-85
2023/08/04 05:15:28;;;;;;;0.88;0.70;;;;;;;18.33;90.86;97790.00;2612978;28;20072;-84
2023/08/04 05:16:45;;;;;;;2.33;0.80;;;;;;;18.35;95.74;97791.56;2613024;28;20401;-85
2023/08/04 05:18:01;;;;;;;1.55;0.90;;;;;;;18.42;91.96;97792.00;2612903;28;20080;-85
2023/08/04 05:19:16;;;;;;;1.50;0.70;;;;;;;18.45;91.72;97797.09;2612896;28;20167;-85
2023/08/04 05:20:32;;;;;;;0.95;0.70;;;;;;;18.48;91.61;97793.34;2612959;28;20041;-85
2023/08/04 05:21:47;;;;;;;1.25;0.75;;;;;;;18.40;93.61;97790.41;2612882;28;20041;-85
2023/08/04 05:23:03;;;;;;;1.67;0.80;;;;;;;18.40;93.95;97799.19;2612915;28;20072;-85
2023/08/04 05:24:18;;;;;;;1.02;0.80;;;;;;;18.48;95.30;97801.31;2612895;28;20045;-85
2023/08/04 05:25:34;;;;;;;2.42;0.90;;;;;;;18.50;93.17;97796.75;2612910;28;20055;-85
2023/08/04 05:26:49;;;;;;;0.88;0.70;;;;;;;18.03;99.78;97794.69;2613067;28;20041;-84
2023/08/04 05:28:28;;;;;;;1.42;0.80;;;;;;;18.32;99.99;97798.91;2612727;28;20079;-85
2023/08/04 05:29:43;;;;;;;0.95;0.75;;;;;;;18.26;100.00;97783.44;2612749;28;20052;-84
2023/08/04 05:31:01;;;;;;;2.72;0.80;;;;;;;18.18;100.00;97786.63;2612746;28;20040;-85
2023/08/04 05:32:17;;;;;;;1.50;0.70;;;;;;;18.33;96.60;97787.34;2601826;28;20073;-84
2023/08/04 05:33:33;;;;;;;5.78;0.60;;;;;;;18.41;96.28;97792.94;2606268;28;20053;-85
2023/08/04 05:34:48;;;;;;;2.25;0.70;;;;;;;18.46;92.62;97800.56;2612823;28;20060;-84
2023/08/04 05:36:04;;;;;;;1.52;0.70;;;;;;;18.59;92.25;97800.56;2612764;28;20045;-85
2023/08/04 05:37:19;;;;;;;2.22;0.98;;;;;;;18.59;93.02;97800.56;2612792;28;20072;-85
2023/08/04 05:38:35;;;;;;;1.75;0.80;;;;;;;18.60;92.64;97802.25;2612701;28;20053;-85
2023/08/04 05:39:51;;;;;;;3.70;1.10;;;;;;;18.81;90.38;97810.47;2612712;28;20062;-84
2023/08/04 05:41:06;;;;;;;2.22;0.95;;;;;;;18.91;89.22;97808.84;2612878;28;20045;-84
2023/08/04 05:42:24;;;;;;;1.10;0.70;;;;;;;19.04;88.83;97814.13;2612828;28;20504;-84
2023/08/04 05:43:40;;;;;;;1.98;1.00;;;;;;;19.07;86.53;97815.72;2612690;28;20103;-84
2023/08/04 05:44:55;;;;;;;2.50;0.90;;;;;;;19.18;86.68;97821.06;2612783;28;20114;-84
2023/08/04 05:46:15;;;;;;;0.90;0.70;;;;;;;19.25;84.63;97818.81;2612876;28;20048;-84
2023/08/04 05:47:30;;;;;;;1.00;0.90;;;;;;;19.16;83.63;97819.50;2612653;28;20116;-84
2023/08/04 05:48:46;;;;;;;3.42;0.80;;;;;;;19.08;80.57;97820.06;2612771;28;20049;-84
2023/08/04 05:50:01;;;;;;;2.53;0.70;;;;;;;19.22;80.66;97827.00;2612582;28;20045;-84
2023/08/04 05:51:17;;;;;;;1.48;0.63;;;;;;;19.16;80.55;97824.81;2612546;28;20067;-84
2023/08/04 05:52:33;;;;;;;0.90;0.77;;;;;;;19.34;78.52;97826.09;2612676;28;20524;-84
2023/08/04 05:53:48;;;;;;;1.02;0.65;;;;;;;19.49;76.21;97825.94;2612739;28;20052;-84
2023/08/04 05:55:04;;;;;;;1.83;0.80;;;;;;;19.42;77.80;97830.84;2612549;28;20075;-84
2023/08/04 05:56:19;;;;;;;2.25;0.70;;;;;;;19.32;79.01;97829.81;2612727;28;20092;-85